Dessau, Texas
Current Conditions -  °F | °C
As of 6:35 PM on Sunday 25 Jan 2015 (Local Time) from KEDC Reporting Station
Clear Clear  
Wind Chill: 59°   Ceiling: Unl
Heat Index: 59°   Visibility: 10mi
Dew Point: 30°   Wind: 7mph
Humidity: 34%   Direction: 300°WNW
Pressure: 30.14"   Gusts: NA
Location:  30.3795°N, 97.676°W
Report Text: KEDC 260035Z AUTO 30006KT 10SM CLR 15/M01 A3014 RMK AO2
Loading
Personal Weather Stations






























Interactive Weather Map New forecast layout! Learn more

10-Day Weather Forecast

Advertisements
Track Severe Weather on mobile